sensor_id;sensor_type;location;lat;lon;timestamp;P1;durP1;ratioP1;P2;durP2;ratioP2
33810;SDS011;20119;48.334;16.206;2024-03-02T00:01:59;101.07;;;68.63;;
33810;SDS011;20119;48.334;16.206;2024-03-02T00:04:26;107.82;;;71.53;;
33810;SDS011;20119;48.334;16.206;2024-03-02T00:06:55;102.95;;;68.53;;
33810;SDS011;20119;48.334;16.206;2024-03-02T00:12:00;102.35;;;70.20;;
33810;SDS011;20119;48.334;16.206;2024-03-02T00:14:28;104.75;;;70.72;;
33810;SDS011;20119;48.334;16.206;2024-03-02T00:16:56;106.53;;;72.53;;
33810;SDS011;20119;48.334;16.206;2024-03-02T00:22:01;105.03;;;72.45;;
33810;SDS011;20119;48.334;16.206;2024-03-02T00:27:04;109.35;;;73.57;;
33810;SDS011;20119;48.334;16.206;2024-03-02T00:29:36;110.80;;;73.63;;
33810;SDS011;20119;48.334;16.206;2024-03-02T00:32:03;107.78;;;74.53;;
33810;SDS011;20119;48.334;16.206;2024-03-02T00:34:38;113.18;;;72.35;;
33810;SDS011;20119;48.334;16.206;2024-03-02T00:37:06;115.18;;;75.65;;
33810;SDS011;20119;48.334;16.206;2024-03-02T00:39:33;111.07;;;75.30;;
33810;SDS011;20119;48.334;16.206;2024-03-02T00:42:01;114.75;;;76.97;;
33810;SDS011;20119;48.334;16.206;2024-03-02T00:44:28;116.10;;;78.05;;
33810;SDS011;20119;48.334;16.206;2024-03-02T00:47:00;116.82;;;77.60;;
33810;SDS011;20119;48.334;16.206;2024-03-02T00:49:28;112.53;;;77.25;;
33810;SDS011;20119;48.334;16.206;2024-03-02T00:51:55;114.70;;;77.15;;
33810;SDS011;20119;48.334;16.206;2024-03-02T00:54:25;118.47;;;77.25;;
33810;SDS011;20119;48.334;16.206;2024-03-02T00:56:53;121.03;;;78.40;;
33810;SDS011;20119;48.334;16.206;2024-03-02T00:59:21;115.63;;;76.85;;
33810;SDS011;20119;48.334;16.206;2024-03-02T01:01:48;111.95;;;75.88;;
33810;SDS011;20119;48.334;16.206;2024-03-02T01:04:16;112.07;;;73.97;;
33810;SDS011;20119;48.334;16.206;2024-03-02T01:06:43;106.93;;;73.43;;
33810;SDS011;20119;48.334;16.206;2024-03-02T01:14:23;110.65;;;73.30;;
33810;SDS011;20119;48.334;16.206;2024-03-02T01:16:50;112.00;;;72.55;;
33810;SDS011;20119;48.334;16.206;2024-03-02T01:19:17;109.35;;;73.13;;
33810;SDS011;20119;48.334;16.206;2024-03-02T01:21:43;105.72;;;71.97;;
33810;SDS011;20119;48.334;16.206;2024-03-02T01:24:11;112.30;;;73.30;;
33810;SDS011;20119;48.334;16.206;2024-03-02T01:31:50;116.28;;;75.22;;
33810;SDS011;20119;48.334;16.206;2024-03-02T01:34:18;119.27;;;77.43;;
33810;SDS011;20119;48.334;16.206;2024-03-02T01:36:45;116.78;;;78.22;;
33810;SDS011;20119;48.334;16.206;2024-03-02T01:39:13;121.35;;;78.93;;
33810;SDS011;20119;48.334;16.206;2024-03-02T01:41:40;124.50;;;78.70;;
33810;SDS011;20119;48.334;16.206;2024-03-02T01:44:07;124.45;;;80.68;;
33810;SDS011;20119;48.334;16.206;2024-03-02T01:46:34;126.55;;;79.18;;
33810;SDS011;20119;48.334;16.206;2024-03-02T01:49:03;127.07;;;81.90;;
33810;SDS011;20119;48.334;16.206;2024-03-02T01:51:30;135.32;;;82.55;;
33810;SDS011;20119;48.334;16.206;2024-03-02T01:53:58;130.38;;;83.03;;
33810;SDS011;20119;48.334;16.206;2024-03-02T01:56:25;135.38;;;82.50;;
33810;SDS011;20119;48.334;16.206;2024-03-02T01:58:52;142.13;;;84.95;;
33810;SDS011;20119;48.334;16.206;2024-03-02T02:01:19;142.00;;;86.60;;
33810;SDS011;20119;48.334;16.206;2024-03-02T02:03:46;133.07;;;82.20;;
33810;SDS011;20119;48.334;16.206;2024-03-02T02:06:15;145.93;;;88.30;;
33810;SDS011;20119;48.334;16.206;2024-03-02T02:08:42;154.10;;;90.20;;
33810;SDS011;20119;48.334;16.206;2024-03-02T02:11:10;140.63;;;87.07;;
33810;SDS011;20119;48.334;16.206;2024-03-02T02:13:40;137.13;;;84.95;;
33810;SDS011;20119;48.334;16.206;2024-03-02T02:23:56;137.90;;;84.50;;
33810;SDS011;20119;48.334;16.206;2024-03-02T02:34:09;160.48;;;91.63;;
33810;SDS011;20119;48.334;16.206;2024-03-02T02:36:37;169.32;;;91.47;;
33810;SDS011;20119;48.334;16.206;2024-03-02T02:39:07;166.27;;;92.18;;
33810;SDS011;20119;48.334;16.206;2024-03-02T02:41:37;170.60;;;92.45;;
33810;SDS011;20119;48.334;16.206;2024-03-02T02:44:04;169.85;;;93.22;;
33810;SDS011;20119;48.334;16.206;2024-03-02T02:46:32;168.45;;;92.50;;
33810;SDS011;20119;48.334;16.206;2024-03-02T02:48:59;173.35;;;93.97;;
33810;SDS011;20119;48.334;16.206;2024-03-02T02:51:26;179.90;;;94.32;;
33810;SDS011;20119;48.334;16.206;2024-03-02T02:53:53;178.02;;;96.72;;
33810;SDS011;20119;48.334;16.206;2024-03-02T02:56:21;178.07;;;95.82;;
33810;SDS011;20119;48.334;16.206;2024-03-02T02:58:48;176.25;;;93.53;;
33810;SDS011;20119;48.334;16.206;2024-03-02T03:03:51;186.05;;;97.13;;
33810;SDS011;20119;48.334;16.206;2024-03-02T03:08:53;187.57;;;97.68;;
33810;SDS011;20119;48.334;16.206;2024-03-02T03:11:22;187.23;;;97.43;;
33810;SDS011;20119;48.334;16.206;2024-03-02T03:16:26;198.05;;;98.88;;
33810;SDS011;20119;48.334;16.206;2024-03-02T03:18:53;186.07;;;99.50;;
33810;SDS011;20119;48.334;16.206;2024-03-02T03:23:56;200.15;;;102.50;;
33810;SDS011;20119;48.334;16.206;2024-03-02T03:26:24;193.05;;;99.88;;
33810;SDS011;20119;48.334;16.206;2024-03-02T03:28:51;193.68;;;100.20;;
33810;SDS011;20119;48.334;16.206;2024-03-02T03:31:18;198.90;;;102.25;;
33810;SDS011;20119;48.334;16.206;2024-03-02T03:33:46;193.63;;;101.95;;
33810;SDS011;20119;48.334;16.206;2024-03-02T03:36:13;204.52;;;103.07;;
33810;SDS011;20119;48.334;16.206;2024-03-02T03:38:40;206.90;;;104.82;;
33810;SDS011;20119;48.334;16.206;2024-03-02T03:41:07;212.95;;;103.53;;
33810;SDS011;20119;48.334;16.206;2024-03-02T03:43:35;203.07;;;105.22;;
33810;SDS011;20119;48.334;16.206;2024-03-02T03:46:02;213.35;;;104.32;;
33810;SDS011;20119;48.334;16.206;2024-03-02T03:48:29;202.98;;;102.05;;
33810;SDS011;20119;48.334;16.206;2024-03-02T03:53:32;201.55;;;100.95;;
33810;SDS011;20119;48.334;16.206;2024-03-02T03:55:59;205.20;;;102.15;;
33810;SDS011;20119;48.334;16.206;2024-03-02T03:58:26;186.63;;;99.53;;
33810;SDS011;20119;48.334;16.206;2024-03-02T04:03:30;217.38;;;101.10;;
33810;SDS011;20119;48.334;16.206;2024-03-02T04:05:57;220.55;;;101.70;;
33810;SDS011;20119;48.334;16.206;2024-03-02T04:08:24;247.50;;;102.93;;
33810;SDS011;20119;48.334;16.206;2024-03-02T04:10:51;224.52;;;101.65;;
33810;SDS011;20119;48.334;16.206;2024-03-02T04:13:18;210.95;;;103.88;;
33810;SDS011;20119;48.334;16.206;2024-03-02T04:15:45;207.25;;;99.60;;
33810;SDS011;20119;48.334;16.206;2024-03-02T04:18:12;217.82;;;102.80;;
33810;SDS011;20119;48.334;16.206;2024-03-02T04:20:41;215.95;;;100.20;;
33810;SDS011;20119;48.334;16.206;2024-03-02T04:23:08;213.15;;;99.70;;
33810;SDS011;20119;48.334;16.206;2024-03-02T04:28:09;212.20;;;99.23;;
33810;SDS011;20119;48.334;16.206;2024-03-02T04:30:37;206.27;;;100.40;;
33810;SDS011;20119;48.334;16.206;2024-03-02T04:33:04;214.27;;;103.10;;
33810;SDS011;20119;48.334;16.206;2024-03-02T04:35:35;219.40;;;102.00;;
33810;SDS011;20119;48.334;16.206;2024-03-02T04:38:03;213.82;;;100.70;;
33810;SDS011;20119;48.334;16.206;2024-03-02T04:40:31;220.20;;;100.68;;
33810;SDS011;20119;48.334;16.206;2024-03-02T04:42:58;215.77;;;102.78;;
33810;SDS011;20119;48.334;16.206;2024-03-02T04:45:25;247.02;;;103.20;;
33810;SDS011;20119;48.334;16.206;2024-03-02T04:50:27;226.90;;;103.22;;
33810;SDS011;20119;48.334;16.206;2024-03-02T04:52:55;278.85;;;105.55;;
33810;SDS011;20119;48.334;16.206;2024-03-02T04:55:23;329.95;;;107.05;;
33810;SDS011;20119;48.334;16.206;2024-03-02T04:58:16;246.40;;;104.75;;
33810;SDS011;20119;48.334;16.206;2024-03-02T05:00:43;231.35;;;103.03;;
33810;SDS011;20119;48.334;16.206;2024-03-02T05:03:11;262.85;;;104.35;;
33810;SDS011;20119;48.334;16.206;2024-03-02T05:05:39;320.65;;;103.88;;
33810;SDS011;20119;48.334;16.206;2024-03-02T05:08:06;356.75;;;106.57;;
33810;SDS011;20119;48.334;16.206;2024-03-02T05:10:35;524.38;;;106.10;;
33810;SDS011;20119;48.334;16.206;2024-03-02T05:13:02;542.30;;;106.88;;
33810;SDS011;20119;48.334;16.206;2024-03-02T05:15:30;685.90;;;108.68;;
33810;SDS011;20119;48.334;16.206;2024-03-02T05:17:57;590.72;;;109.00;;
33810;SDS011;20119;48.334;16.206;2024-03-02T05:23:00;1187.30;;;119.57;;
33810;SDS011;20119;48.334;16.206;2024-03-02T05:28:03;842.88;;;107.63;;
33810;SDS011;20119;48.334;16.206;2024-03-02T05:35:41;800.80;;;109.50;;
33810;SDS011;20119;48.334;16.206;2024-03-02T05:38:10;1189.95;;;122.05;;
33810;SDS011;20119;48.334;16.206;2024-03-02T05:40:37;459.35;;;104.47;;
33810;SDS011;20119;48.334;16.206;2024-03-02T05:43:05;1234.03;;;123.90;;
33810;SDS011;20119;48.334;16.206;2024-03-02T05:45:32;557.53;;;107.78;;
33810;SDS011;20119;48.334;16.206;2024-03-02T05:47:59;756.33;;;115.25;;
33810;SDS011;20119;48.334;16.206;2024-03-02T05:50:26;571.67;;;108.85;;
33810;SDS011;20119;48.334;16.206;2024-03-02T05:52:53;818.60;;;112.63;;
33810;SDS011;20119;48.334;16.206;2024-03-02T05:55:21;573.92;;;106.70;;
33810;SDS011;20119;48.334;16.206;2024-03-02T06:00:25;610.78;;;106.28;;
33810;SDS011;20119;48.334;16.206;2024-03-02T06:02:52;289.40;;;96.88;;
33810;SDS011;20119;48.334;16.206;2024-03-02T06:05:19;433.92;;;95.50;;
33810;SDS011;20119;48.334;16.206;2024-03-02T06:07:46;353.30;;;96.05;;
33810;SDS011;20119;48.334;16.206;2024-03-02T06:10:13;499.02;;;100.00;;
33810;SDS011;20119;48.334;16.206;2024-03-02T06:12:40;449.25;;;101.25;;
33810;SDS011;20119;48.334;16.206;2024-03-02T06:15:08;698.55;;;104.68;;
33810;SDS011;20119;48.334;16.206;2024-03-02T06:17:37;448.15;;;102.45;;
33810;SDS011;20119;48.334;16.206;2024-03-02T06:20:04;228.05;;;96.53;;
33810;SDS011;20119;48.334;16.206;2024-03-02T06:22:33;241.48;;;96.40;;
33810;SDS011;20119;48.334;16.206;2024-03-02T06:25:00;305.63;;;95.65;;
33810;SDS011;20119;48.334;16.206;2024-03-02T06:27:28;695.05;;;96.82;;
33810;SDS011;20119;48.334;16.206;2024-03-02T06:29:55;655.15;;;95.60;;
33810;SDS011;20119;48.334;16.206;2024-03-02T06:32:22;269.30;;;92.55;;
33810;SDS011;20119;48.334;16.206;2024-03-02T06:34:51;409.02;;;93.68;;
33810;SDS011;20119;48.334;16.206;2024-03-02T06:37:18;271.65;;;88.47;;
33810;SDS011;20119;48.334;16.206;2024-03-02T06:44:56;209.20;;;88.30;;
33810;SDS011;20119;48.334;16.206;2024-03-02T06:47:23;686.85;;;95.78;;
33810;SDS011;20119;48.334;16.206;2024-03-02T06:49:52;387.13;;;88.38;;
33810;SDS011;20119;48.334;16.206;2024-03-02T06:52:19;298.20;;;85.00;;
33810;SDS011;20119;48.334;16.206;2024-03-02T06:54:46;168.68;;;83.53;;
33810;SDS011;20119;48.334;16.206;2024-03-02T06:57:13;182.38;;;80.75;;
33810;SDS011;20119;48.334;16.206;2024-03-02T06:59:42;214.73;;;81.07;;
33810;SDS011;20119;48.334;16.206;2024-03-02T07:02:09;381.98;;;78.75;;
33810;SDS011;20119;48.334;16.206;2024-03-02T07:04:36;137.27;;;76.88;;
33810;SDS011;20119;48.334;16.206;2024-03-02T07:07:05;154.25;;;73.63;;
33810;SDS011;20119;48.334;16.206;2024-03-02T07:12:07;508.90;;;71.40;;
33810;SDS011;20119;48.334;16.206;2024-03-02T07:14:34;257.30;;;74.40;;
33810;SDS011;20119;48.334;16.206;2024-03-02T07:17:19;148.32;;;70.00;;
33810;SDS011;20119;48.334;16.206;2024-03-02T07:19:46;141.13;;;69.82;;
33810;SDS011;20119;48.334;16.206;2024-03-02T07:22:14;274.23;;;69.20;;
33810;SDS011;20119;48.334;16.206;2024-03-02T07:24:41;213.73;;;69.15;;
33810;SDS011;20119;48.334;16.206;2024-03-02T07:27:08;175.57;;;68.10;;
33810;SDS011;20119;48.334;16.206;2024-03-02T07:29:38;140.68;;;68.18;;
33810;SDS011;20119;48.334;16.206;2024-03-02T07:32:14;112.95;;;65.50;;
33810;SDS011;20119;48.334;16.206;2024-03-02T07:34:45;100.25;;;62.55;;
33810;SDS011;20119;48.334;16.206;2024-03-02T07:37:12;100.90;;;62.28;;
33810;SDS011;20119;48.334;16.206;2024-03-02T07:39:40;94.65;;;59.60;;
33810;SDS011;20119;48.334;16.206;2024-03-02T07:42:07;95.45;;;60.65;;
33810;SDS011;20119;48.334;16.206;2024-03-02T07:44:34;91.55;;;56.92;;
33810;SDS011;20119;48.334;16.206;2024-03-02T07:47:02;87.47;;;55.28;;
33810;SDS011;20119;48.334;16.206;2024-03-02T07:49:29;85.93;;;55.08;;
33810;SDS011;20119;48.334;16.206;2024-03-02T07:51:56;83.10;;;52.30;;
33810;SDS011;20119;48.334;16.206;2024-03-02T07:54:23;78.25;;;52.05;;
33810;SDS011;20119;48.334;16.206;2024-03-02T07:59:27;65.93;;;45.53;;
33810;SDS011;20119;48.334;16.206;2024-03-02T08:01:54;63.97;;;45.40;;
33810;SDS011;20119;48.334;16.206;2024-03-02T08:04:21;61.45;;;43.67;;
33810;SDS011;20119;48.334;16.206;2024-03-02T08:06:48;62.13;;;44.17;;
33810;SDS011;20119;48.334;16.206;2024-03-02T08:09:16;63.15;;;43.88;;
33810;SDS011;20119;48.334;16.206;2024-03-02T08:11:43;63.22;;;43.70;;
33810;SDS011;20119;48.334;16.206;2024-03-02T08:14:10;58.15;;;41.35;;
33810;SDS011;20119;48.334;16.206;2024-03-02T08:16:39;46.97;;;35.20;;
33810;SDS011;20119;48.334;16.206;2024-03-02T08:19:07;52.75;;;36.83;;
33810;SDS011;20119;48.334;16.206;2024-03-02T08:21:35;47.40;;;34.88;;
33810;SDS011;20119;48.334;16.206;2024-03-02T08:24:02;36.83;;;29.30;;
33810;SDS011;20119;48.334;16.206;2024-03-02T08:29:05;40.45;;;29.45;;
33810;SDS011;20119;48.334;16.206;2024-03-02T08:34:09;40.90;;;31.50;;
33810;SDS011;20119;48.334;16.206;2024-03-02T08:36:36;40.50;;;30.58;;
33810;SDS011;20119;48.334;16.206;2024-03-02T08:39:03;44.10;;;31.77;;
33810;SDS011;20119;48.334;16.206;2024-03-02T08:41:32;40.40;;;30.25;;
33810;SDS011;20119;48.334;16.206;2024-03-02T08:43:59;40.78;;;31.80;;
33810;SDS011;20119;48.334;16.206;2024-03-02T08:46:27;41.50;;;31.63;;
33810;SDS011;20119;48.334;16.206;2024-03-02T08:48:54;42.33;;;31.63;;
33810;SDS011;20119;48.334;16.206;2024-03-02T08:51:23;42.17;;;31.48;;
33810;SDS011;20119;48.334;16.206;2024-03-02T08:53:50;45.03;;;33.80;;
33810;SDS011;20119;48.334;16.206;2024-03-02T08:56:17;44.83;;;34.10;;
33810;SDS011;20119;48.334;16.206;2024-03-02T08:58:45;44.40;;;33.67;;
33810;SDS011;20119;48.334;16.206;2024-03-02T09:01:12;50.08;;;34.92;;
33810;SDS011;20119;48.334;16.206;2024-03-02T09:03:39;49.60;;;35.60;;
33810;SDS011;20119;48.334;16.206;2024-03-02T09:06:09;49.67;;;35.28;;
33810;SDS011;20119;48.334;16.206;2024-03-02T09:08:38;50.70;;;36.45;;
33810;SDS011;20119;48.334;16.206;2024-03-02T09:11:05;50.65;;;36.22;;
33810;SDS011;20119;48.334;16.206;2024-03-02T09:13:33;51.67;;;36.60;;
33810;SDS011;20119;48.334;16.206;2024-03-02T09:16:01;54.58;;;38.03;;
33810;SDS011;20119;48.334;16.206;2024-03-02T09:18:30;54.40;;;37.40;;
33810;SDS011;20119;48.334;16.206;2024-03-02T09:20:57;53.45;;;36.47;;
33810;SDS011;20119;48.334;16.206;2024-03-02T09:23:25;53.50;;;37.80;;
33810;SDS011;20119;48.334;16.206;2024-03-02T09:25:53;54.33;;;36.78;;
33810;SDS011;20119;48.334;16.206;2024-03-02T09:28:20;57.10;;;36.53;;
33810;SDS011;20119;48.334;16.206;2024-03-02T09:30:47;52.78;;;37.38;;
33810;SDS011;20119;48.334;16.206;2024-03-02T09:35:50;54.35;;;37.95;;
33810;SDS011;20119;48.334;16.206;2024-03-02T09:38:17;53.22;;;36.05;;
33810;SDS011;20119;48.334;16.206;2024-03-02T09:43:16;48.92;;;34.17;;
33810;SDS011;20119;48.334;16.206;2024-03-02T09:45:43;49.42;;;35.22;;
33810;SDS011;20119;48.334;16.206;2024-03-02T09:48:12;48.83;;;33.67;;
33810;SDS011;20119;48.334;16.206;2024-03-02T09:50:39;45.20;;;33.33;;
33810;SDS011;20119;48.334;16.206;2024-03-02T09:53:06;46.25;;;33.67;;
33810;SDS011;20119;48.334;16.206;2024-03-02T09:55:34;46.35;;;33.58;;
33810;SDS011;20119;48.334;16.206;2024-03-02T10:03:13;49.58;;;35.55;;
33810;SDS011;20119;48.334;16.206;2024-03-02T10:05:41;47.58;;;34.67;;
33810;SDS011;20119;48.334;16.206;2024-03-02T10:08:09;48.35;;;35.42;;
33810;SDS011;20119;48.334;16.206;2024-03-02T10:10:36;51.92;;;37.33;;
33810;SDS011;20119;48.334;16.206;2024-03-02T10:13:05;51.13;;;36.67;;
33810;SDS011;20119;48.334;16.206;2024-03-02T10:15:34;51.72;;;35.67;;
33810;SDS011;20119;48.334;16.206;2024-03-02T10:18:02;52.75;;;35.35;;
33810;SDS011;20119;48.334;16.206;2024-03-02T10:23:10;51.03;;;37.15;;
33810;SDS011;20119;48.334;16.206;2024-03-02T10:25:40;50.47;;;37.28;;
33810;SDS011;20119;48.334;16.206;2024-03-02T10:28:08;50.17;;;35.45;;
33810;SDS011;20119;48.334;16.206;2024-03-02T10:33:11;50.50;;;36.92;;
33810;SDS011;20119;48.334;16.206;2024-03-02T10:35:38;47.38;;;35.88;;
33810;SDS011;20119;48.334;16.206;2024-03-02T10:38:05;49.22;;;37.75;;
33810;SDS011;20119;48.334;16.206;2024-03-02T10:40:34;50.67;;;36.60;;
33810;SDS011;20119;48.334;16.206;2024-03-02T10:43:01;51.85;;;36.55;;
33810;SDS011;20119;48.334;16.206;2024-03-02T10:45:30;52.22;;;37.00;;
33810;SDS011;20119;48.334;16.206;2024-03-02T10:53:08;50.55;;;35.90;;
33810;SDS011;20119;48.334;16.206;2024-03-02T10:55:37;49.63;;;37.17;;
33810;SDS011;20119;48.334;16.206;2024-03-02T10:58:04;49.90;;;37.45;;
33810;SDS011;20119;48.334;16.206;2024-03-02T11:00:33;50.35;;;38.72;;
33810;SDS011;20119;48.334;16.206;2024-03-02T11:03:02;50.47;;;38.90;;
33810;SDS011;20119;48.334;16.206;2024-03-02T11:05:36;58.33;;;41.80;;
33810;SDS011;20119;48.334;16.206;2024-03-02T11:08:06;56.55;;;40.10;;
33810;SDS011;20119;48.334;16.206;2024-03-02T11:10:34;54.95;;;42.10;;
33810;SDS011;20119;48.334;16.206;2024-03-02T11:13:05;55.00;;;38.67;;
33810;SDS011;20119;48.334;16.206;2024-03-02T11:15:36;58.40;;;44.50;;
33810;SDS011;20119;48.334;16.206;2024-03-02T11:18:04;60.22;;;44.20;;
33810;SDS011;20119;48.334;16.206;2024-03-02T11:23:08;61.90;;;46.25;;
33810;SDS011;20119;48.334;16.206;2024-03-02T11:25:36;64.63;;;47.45;;
33810;SDS011;20119;48.334;16.206;2024-03-02T11:28:06;66.38;;;48.30;;
33810;SDS011;20119;48.334;16.206;2024-03-02T11:30:49;68.30;;;48.72;;
33810;SDS011;20119;48.334;16.206;2024-03-02T11:33:25;72.45;;;51.65;;
33810;SDS011;20119;48.334;16.206;2024-03-02T11:38:31;67.65;;;50.50;;
33810;SDS011;20119;48.334;16.206;2024-03-02T11:41:00;69.68;;;51.25;;
33810;SDS011;20119;48.334;16.206;2024-03-02T11:43:29;72.03;;;52.13;;
33810;SDS011;20119;48.334;16.206;2024-03-02T11:45:58;71.97;;;52.25;;
33810;SDS011;20119;48.334;16.206;2024-03-02T11:50:57;76.40;;;54.00;;
33810;SDS011;20119;48.334;16.206;2024-03-02T11:53:27;74.10;;;53.95;;
33810;SDS011;20119;48.334;16.206;2024-03-02T11:55:57;77.30;;;55.95;;
33810;SDS011;20119;48.334;16.206;2024-03-02T12:01:03;76.72;;;56.50;;
33810;SDS011;20119;48.334;16.206;2024-03-02T12:03:30;75.47;;;52.10;;
33810;SDS011;20119;48.334;16.206;2024-03-02T12:08:29;73.85;;;51.70;;
33810;SDS011;20119;48.334;16.206;2024-03-02T12:10:57;75.30;;;51.75;;
33810;SDS011;20119;48.334;16.206;2024-03-02T12:16:00;66.90;;;46.90;;
33810;SDS011;20119;48.334;16.206;2024-03-02T12:18:29;63.65;;;44.13;;
33810;SDS011;20119;48.334;16.206;2024-03-02T12:20:55;69.68;;;50.95;;
33810;SDS011;20119;48.334;16.206;2024-03-02T12:25:58;63.72;;;46.17;;
33810;SDS011;20119;48.334;16.206;2024-03-02T12:28:26;60.67;;;46.20;;
33810;SDS011;20119;48.334;16.206;2024-03-02T12:30:53;65.93;;;46.90;;
33810;SDS011;20119;48.334;16.206;2024-03-02T12:33:21;63.45;;;45.03;;
33810;SDS011;20119;48.334;16.206;2024-03-02T12:35:49;62.47;;;44.75;;
33810;SDS011;20119;48.334;16.206;2024-03-02T12:38:16;63.55;;;47.03;;
33810;SDS011;20119;48.334;16.206;2024-03-02T12:40:44;59.42;;;39.70;;
33810;SDS011;20119;48.334;16.206;2024-03-02T12:43:13;62.72;;;45.88;;
33810;SDS011;20119;48.334;16.206;2024-03-02T12:45:41;62.28;;;45.97;;
33810;SDS011;20119;48.334;16.206;2024-03-02T12:48:08;58.33;;;43.03;;
33810;SDS011;20119;48.334;16.206;2024-03-02T12:50:36;60.53;;;44.58;;
33810;SDS011;20119;48.334;16.206;2024-03-02T12:53:03;64.03;;;44.55;;
33810;SDS011;20119;48.334;16.206;2024-03-02T12:55:30;61.13;;;45.08;;
33810;SDS011;20119;48.334;16.206;2024-03-02T12:57:58;60.13;;;43.83;;
33810;SDS011;20119;48.334;16.206;2024-03-02T13:00:25;64.38;;;42.97;;
33810;SDS011;20119;48.334;16.206;2024-03-02T13:02:52;57.90;;;44.80;;
33810;SDS011;20119;48.334;16.206;2024-03-02T13:05:19;57.78;;;38.38;;
33810;SDS011;20119;48.334;16.206;2024-03-02T13:07:48;61.00;;;43.28;;
33810;SDS011;20119;48.334;16.206;2024-03-02T13:10:18;60.10;;;44.80;;
33810;SDS011;20119;48.334;16.206;2024-03-02T13:12:46;59.50;;;42.47;;
33810;SDS011;20119;48.334;16.206;2024-03-02T13:15:13;64.05;;;45.40;;
33810;SDS011;20119;48.334;16.206;2024-03-02T13:17:41;58.63;;;38.55;;
33810;SDS011;20119;48.334;16.206;2024-03-02T13:20:08;60.70;;;44.85;;
33810;SDS011;20119;48.334;16.206;2024-03-02T13:22:36;56.92;;;44.65;;
33810;SDS011;20119;48.334;16.206;2024-03-02T13:25:05;56.78;;;43.92;;
33810;SDS011;20119;48.334;16.206;2024-03-02T13:27:35;55.10;;;41.25;;
33810;SDS011;20119;48.334;16.206;2024-03-02T13:30:03;62.35;;;43.67;;
33810;SDS011;20119;48.334;16.206;2024-03-02T13:32:33;55.65;;;42.10;;
33810;SDS011;20119;48.334;16.206;2024-03-02T13:35:00;55.15;;;41.08;;
33810;SDS011;20119;48.334;16.206;2024-03-02T13:40:05;52.95;;;39.58;;
33810;SDS011;20119;48.334;16.206;2024-03-02T13:45:07;47.78;;;35.25;;
33810;SDS011;20119;48.334;16.206;2024-03-02T13:47:34;55.40;;;42.75;;
33810;SDS011;20119;48.334;16.206;2024-03-02T13:50:01;54.00;;;38.95;;
33810;SDS011;20119;48.334;16.206;2024-03-02T13:52:30;57.28;;;41.92;;
33810;SDS011;20119;48.334;16.206;2024-03-02T13:55:00;51.77;;;41.27;;
33810;SDS011;20119;48.334;16.206;2024-03-02T13:57:28;52.83;;;38.85;;
33810;SDS011;20119;48.334;16.206;2024-03-02T13:59:56;58.15;;;41.45;;
33810;SDS011;20119;48.334;16.206;2024-03-02T14:02:23;55.72;;;41.25;;
33810;SDS011;20119;48.334;16.206;2024-03-02T14:07:20;55.40;;;42.70;;
33810;SDS011;20119;48.334;16.206;2024-03-02T14:09:47;52.95;;;39.40;;
33810;SDS011;20119;48.334;16.206;2024-03-02T14:12:14;53.78;;;39.03;;
33810;SDS011;20119;48.334;16.206;2024-03-02T14:14:42;53.33;;;38.58;;
33810;SDS011;20119;48.334;16.206;2024-03-02T14:17:09;61.08;;;43.95;;
33810;SDS011;20119;48.334;16.206;2024-03-02T14:19:43;60.50;;;43.15;;
33810;SDS011;20119;48.334;16.206;2024-03-02T14:22:10;54.55;;;41.40;;
33810;SDS011;20119;48.334;16.206;2024-03-02T14:32:28;53.20;;;38.17;;
33810;SDS011;20119;48.334;16.206;2024-03-02T14:37:31;56.42;;;41.47;;
33810;SDS011;20119;48.334;16.206;2024-03-02T14:39:58;56.65;;;41.88;;
33810;SDS011;20119;48.334;16.206;2024-03-02T14:45:00;57.28;;;42.30;;
33810;SDS011;20119;48.334;16.206;2024-03-02T14:47:31;58.08;;;42.05;;
33810;SDS011;20119;48.334;16.206;2024-03-02T14:50:00;58.75;;;41.65;;
33810;SDS011;20119;48.334;16.206;2024-03-02T14:52:31;59.50;;;39.83;;
33810;SDS011;20119;48.334;16.206;2024-03-02T14:54:58;54.92;;;42.80;;
33810;SDS011;20119;48.334;16.206;2024-03-02T14:57:25;57.28;;;41.33;;
33810;SDS011;20119;48.334;16.206;2024-03-02T14:59:52;57.88;;;44.83;;
33810;SDS011;20119;48.334;16.206;2024-03-02T15:02:20;57.35;;;42.85;;
33810;SDS011;20119;48.334;16.206;2024-03-02T15:04:48;60.17;;;44.33;;
33810;SDS011;20119;48.334;16.206;2024-03-02T15:07:16;61.80;;;44.80;;
33810;SDS011;20119;48.334;16.206;2024-03-02T15:12:18;59.72;;;44.45;;
33810;SDS011;20119;48.334;16.206;2024-03-02T15:14:45;60.60;;;45.08;;
33810;SDS011;20119;48.334;16.206;2024-03-02T15:17:12;60.85;;;45.15;;
33810;SDS011;20119;48.334;16.206;2024-03-02T15:19:41;63.20;;;45.58;;
33810;SDS011;20119;48.334;16.206;2024-03-02T15:22:10;62.80;;;45.95;;
33810;SDS011;20119;48.334;16.206;2024-03-02T15:24:38;59.78;;;44.85;;
33810;SDS011;20119;48.334;16.206;2024-03-02T15:27:05;61.33;;;44.67;;
33810;SDS011;20119;48.334;16.206;2024-03-02T15:29:33;57.65;;;44.92;;
33810;SDS011;20119;48.334;16.206;2024-03-02T15:32:01;63.78;;;46.08;;
33810;SDS011;20119;48.334;16.206;2024-03-02T15:34:30;59.45;;;45.42;;
33810;SDS011;20119;48.334;16.206;2024-03-02T15:36:57;65.60;;;47.75;;
33810;SDS011;20119;48.334;16.206;2024-03-02T15:39:26;62.60;;;45.22;;
33810;SDS011;20119;48.334;16.206;2024-03-02T15:41:53;61.63;;;47.15;;
33810;SDS011;20119;48.334;16.206;2024-03-02T15:46:56;63.53;;;45.50;;
33810;SDS011;20119;48.334;16.206;2024-03-02T15:49:23;65.30;;;49.30;;
33810;SDS011;20119;48.334;16.206;2024-03-02T15:54:27;65.85;;;48.75;;
33810;SDS011;20119;48.334;16.206;2024-03-02T15:56:54;65.88;;;44.63;;
33810;SDS011;20119;48.334;16.206;2024-03-02T15:59:21;65.53;;;48.47;;
33810;SDS011;20119;48.334;16.206;2024-03-02T16:01:48;67.53;;;49.50;;
33810;SDS011;20119;48.334;16.206;2024-03-02T16:04:15;70.80;;;48.88;;
33810;SDS011;20119;48.334;16.206;2024-03-02T16:06:42;67.30;;;49.75;;
33810;SDS011;20119;48.334;16.206;2024-03-02T16:09:10;68.70;;;45.83;;
33810;SDS011;20119;48.334;16.206;2024-03-02T16:11:38;69.43;;;51.33;;
33810;SDS011;20119;48.334;16.206;2024-03-02T16:14:05;71.85;;;50.72;;
33810;SDS011;20119;48.334;16.206;2024-03-02T16:16:32;69.47;;;49.08;;
33810;SDS011;20119;48.334;16.206;2024-03-02T16:19:00;68.40;;;50.47;;
33810;SDS011;20119;48.334;16.206;2024-03-02T16:21:28;68.68;;;50.30;;
33810;SDS011;20119;48.334;16.206;2024-03-02T16:23:55;67.20;;;47.80;;
33810;SDS011;20119;48.334;16.206;2024-03-02T16:26:23;68.45;;;50.90;;
33810;SDS011;20119;48.334;16.206;2024-03-02T16:28:51;68.28;;;47.28;;
33810;SDS011;20119;48.334;16.206;2024-03-02T16:31:18;66.00;;;48.67;;
33810;SDS011;20119;48.334;16.206;2024-03-02T16:33:45;69.07;;;49.80;;
33810;SDS011;20119;48.334;16.206;2024-03-02T16:36:12;68.95;;;49.55;;